Hlavní strana
METAR-TAF:

METAR-TAF

Letiště :

Notodden, Norsko

zeměpisná šířka: 59-34N, zeměpisná délka: 009-13E, výška: 19 m

Aktuální stav počasí

Zpráva byla vytvořena před 9 hodinami a 21 minutami, v 16:50 UTC
vítr z různých směrů 2 kt
Teplota 7°C
Vlhkost vzduchu 100%
Tlak 1007 hPa
Viditelnost: 6000 m
Polojasno ve výšce 500 ft
Zataženo ve výšce 2300 ft
mlha v blízkosti, slabý déšť

METAR: ENNO 171650Z VRB02KT 6000 VCFG -RA SCT005 OVC023 07/07 Q1007

Čas: 04:11 (02:11 UTC)

Předpověď počasí

Zpráva byla vytvořena před 15 hodinami a 11 minutami, v 11:00 UTC
Předpověď platná od 17 v 12 UTC do 17 v 17 UTC
vítr z různých směrů 5 kt
Viditelnost: 8000 m
Polojasno ve výšce 800 ft
Oblačno až skoro zataženo ve výšce 1500 ft
slabý déšť, mrholení
Dočasný
od 17 v 12 UTC do 17 v 17 UTC
Viditelnost: 2500 m
Zataženo ve výšce 400 ft
déšť, mrholení, kouřmo

TAF: ENNO 171100Z 1712/1717 VRB05KT 8000 -RADZ SCT008 BKN015 TEMPO 1712/1717 2500 RADZ BR OVC004

Stav a předpovědi počasí z více než 4 000 letišť (zprávy METAR a TAF).

Červené a žluté tečky na mapě představují dostupné meteorologické stanice.

Když kurzor umístíte na tečku, zobrazí se název stanice.

Pak kliknutím zobrazíte stav a předpověď počasí.

Chcete-li změnit mapu, kliknutím na zelené tlačítko se znaménkem +mapu přiblížíte, kliknutím na zelené tlačítko se znaménkem – mapu oddálíte a kliknutím na zelené šipky přejdete na sousední mapy.


METAR-TAF: